sensor_id;sensor_type;location;lat;lon;timestamp;pressure;altitude;pressure_sealevel;temperature;humidity
5595;BME280;1003;48.002;7.788;2022-10-29T00:00:50;99138.25;;;13.57;100.00
5595;BME280;1003;48.002;7.788;2022-10-29T00:03:18;99144.22;;;13.53;100.00
5595;BME280;1003;48.002;7.788;2022-10-29T00:05:56;99141.81;;;13.48;100.00
5595;BME280;1003;48.002;7.788;2022-10-29T00:08:25;99148.56;;;13.48;100.00
5595;BME280;1003;48.002;7.788;2022-10-29T00:10:52;99152.09;;;13.39;100.00
5595;BME280;1003;48.002;7.788;2022-10-29T00:13:19;99157.16;;;13.39;100.00
5595;BME280;1003;48.002;7.788;2022-10-29T00:15:46;99149.63;;;13.37;100.00
5595;BME280;1003;48.002;7.788;2022-10-29T00:18:13;99157.13;;;13.41;100.00
5595;BME280;1003;48.002;7.788;2022-10-29T00:20:40;99161.22;;;13.45;100.00
5595;BME280;1003;48.002;7.788;2022-10-29T00:23:09;99166.09;;;13.54;100.00
5595;BME280;1003;48.002;7.788;2022-10-29T00:25:36;99175.63;;;13.41;100.00
5595;BME280;1003;48.002;7.788;2022-10-29T00:28:03;99177.44;;;13.36;100.00
5595;BME280;1003;48.002;7.788;2022-10-29T00:30:30;99196.94;;;13.28;100.00
5595;BME280;1003;48.002;7.788;2022-10-29T00:32:57;99194.56;;;13.20;100.00
5595;BME280;1003;48.002;7.788;2022-10-29T00:35:24;99206.44;;;13.15;100.00
5595;BME280;1003;48.002;7.788;2022-10-29T00:37:51;99214.91;;;13.11;100.00
5595;BME280;1003;48.002;7.788;2022-10-29T00:40:20;99219.19;;;13.09;100.00
5595;BME280;1003;48.002;7.788;2022-10-29T00:42:47;99215.91;;;13.04;100.00
5595;BME280;1003;48.002;7.788;2022-10-29T00:45:19;99220.22;;;12.99;100.00
5595;BME280;1003;48.002;7.788;2022-10-29T00:47:51;99224.38;;;13.00;100.00
5595;BME280;1003;48.002;7.788;2022-10-29T00:50:22;99240.31;;;13.02;100.00
5595;BME280;1003;48.002;7.788;2022-10-29T00:52:52;99254.63;;;13.01;100.00
5595;BME280;1003;48.002;7.788;2022-10-29T00:55:21;99263.81;;;13.05;100.00
5595;BME280;1003;48.002;7.788;2022-10-29T00:57:51;99286.44;;;13.10;100.00
5595;BME280;1003;48.002;7.788;2022-10-29T01:00:20;99297.31;;;13.12;100.00
5595;BME280;1003;48.002;7.788;2022-10-29T01:02:48;99284.63;;;13.17;100.00
5595;BME280;1003;48.002;7.788;2022-10-29T01:05:20;99279.53;;;13.20;100.00
5595;BME280;1003;48.002;7.788;2022-10-29T01:07:49;99277.78;;;13.25;100.00
5595;BME280;1003;48.002;7.788;2022-10-29T01:10:25;99262.69;;;13.20;100.00
5595;BME280;1003;48.002;7.788;2022-10-29T01:13:12;99251.69;;;13.26;100.00
5595;BME280;1003;48.002;7.788;2022-10-29T01:15:54;99268.53;;;13.25;100.00
5595;BME280;1003;48.002;7.788;2022-10-29T01:18:34;99271.84;;;13.27;100.00
5595;BME280;1003;48.002;7.788;2022-10-29T01:21:43;99231.41;;;13.30;100.00
5595;BME280;1003;48.002;7.788;2022-10-29T01:24:48;99209.53;;;13.29;100.00
5595;BME280;1003;48.002;7.788;2022-10-29T01:28:05;99181.09;;;13.21;100.00
5595;BME280;1003;48.002;7.788;2022-10-29T01:30:59;99168.63;;;13.13;100.00
5595;BME280;1003;48.002;7.788;2022-10-29T01:33:39;99166.94;;;13.12;100.00
5595;BME280;1003;48.002;7.788;2022-10-29T01:36:21;99168.66;;;13.10;100.00
5595;BME280;1003;48.002;7.788;2022-10-29T01:39:02;99185.50;;;13.10;100.00
5595;BME280;1003;48.002;7.788;2022-10-29T01:41:40;99225.09;;;13.06;100.00
5595;BME280;1003;48.002;7.788;2022-10-29T01:44:22;99250.41;;;13.02;100.00
5595;BME280;1003;48.002;7.788;2022-10-29T01:46:59;99264.81;;;12.98;100.00
5595;BME280;1003;48.002;7.788;2022-10-29T01:49:33;99279.22;;;12.92;100.00
5595;BME280;1003;48.002;7.788;2022-10-29T01:52:04;99307.69;;;12.97;100.00
5595;BME280;1003;48.002;7.788;2022-10-29T01:54:32;99692.84;;;13.01;100.00
5595;BME280;1003;48.002;7.788;2022-10-29T01:56:59;99738.34;;;12.95;100.00
5595;BME280;1003;48.002;7.788;2022-10-29T01:59:30;99759.41;;;12.92;100.00
5595;BME280;1003;48.002;7.788;2022-10-29T02:02:11;99775.34;;;12.94;100.00
5595;BME280;1003;48.002;7.788;2022-10-29T02:04:57;99794.63;;;13.00;100.00
5595;BME280;1003;48.002;7.788;2022-10-29T02:07:43;99805.44;;;13.12;100.00
5595;BME280;1003;48.002;7.788;2022-10-29T02:10:18;99794.44;;;13.18;100.00
5595;BME280;1003;48.002;7.788;2022-10-29T02:12:52;99790.22;;;13.22;100.00
5595;BME280;1003;48.002;7.788;2022-10-29T02:15:25;99795.22;;;13.26;100.00
5595;BME280;1003;48.002;7.788;2022-10-29T02:18:00;99796.03;;;13.30;100.00
5595;BME280;1003;48.002;7.788;2022-10-29T02:20:28;99790.06;;;13.37;100.00
5595;BME280;1003;48.002;7.788;2022-10-29T02:22:56;99800.97;;;13.39;100.00
5595;BME280;1003;48.002;7.788;2022-10-29T02:25:23;99807.72;;;13.40;100.00
5595;BME280;1003;48.002;7.788;2022-10-29T02:27:50;99818.66;;;13.41;100.00
5595;BME280;1003;48.002;7.788;2022-10-29T02:30:18;99817.84;;;13.37;100.00
5595;BME280;1003;48.002;7.788;2022-10-29T02:32:45;99822.94;;;13.32;100.00
5595;BME280;1003;48.002;7.788;2022-10-29T02:35:13;99832.22;;;13.30;100.00
5595;BME280;1003;48.002;7.788;2022-10-29T02:37:40;99838.16;;;13.25;100.00
5595;BME280;1003;48.002;7.788;2022-10-29T02:40:09;99837.34;;;13.20;100.00
5595;BME280;1003;48.002;7.788;2022-10-29T02:42:36;99843.28;;;13.12;100.00
5595;BME280;1003;48.002;7.788;2022-10-29T02:45:04;99834.94;;;13.09;100.00
5595;BME280;1003;48.002;7.788;2022-10-29T02:47:32;99827.44;;;13.03;100.00
5595;BME280;1003;48.002;7.788;2022-10-29T02:49:59;99825.78;;;12.97;100.00
5595;BME280;1003;48.002;7.788;2022-10-29T02:52:27;99824.16;;;12.93;100.00
5595;BME280;1003;48.002;7.788;2022-10-29T02:54:54;99828.41;;;12.86;100.00
5595;BME280;1003;48.002;7.788;2022-10-29T02:57:21;99825.03;;;12.86;100.00
5595;BME280;1003;48.002;7.788;2022-10-29T02:59:48;99821.66;;;12.88;100.00
5595;BME280;1003;48.002;7.788;2022-10-29T03:02:15;99825.91;;;12.83;100.00
5595;BME280;1003;48.002;7.788;2022-10-29T03:04:42;99823.50;;;12.71;100.00
5595;BME280;1003;48.002;7.788;2022-10-29T03:07:09;99810.97;;;12.62;100.00
5595;BME280;1003;48.002;7.788;2022-10-29T03:09:38;99802.63;;;12.52;100.00
5595;BME280;1003;48.002;7.788;2022-10-29T03:12:06;99797.63;;;12.48;100.00
5595;BME280;1003;48.002;7.788;2022-10-29T03:14:33;99789.97;;;12.60;100.00
5595;BME280;1003;48.002;7.788;2022-10-29T03:17:00;99776.44;;;12.67;100.00
5595;BME280;1003;48.002;7.788;2022-10-29T03:19:27;99773.81;;;12.81;100.00
5595;BME280;1003;48.002;7.788;2022-10-29T03:21:54;99753.47;;;12.95;100.00
5595;BME280;1003;48.002;7.788;2022-10-29T03:24:21;99723.81;;;13.15;100.00
5595;BME280;1003;48.002;7.788;2022-10-29T03:26:49;99663.81;;;13.37;100.00
5595;BME280;1003;48.002;7.788;2022-10-29T03:29:16;99617.56;;;13.35;100.00
5595;BME280;1003;48.002;7.788;2022-10-29T03:31:43;99573.22;;;13.16;100.00
5595;BME280;1003;48.002;7.788;2022-10-29T03:34:10;99531.44;;;12.95;100.00
5595;BME280;1003;48.002;7.788;2022-10-29T03:36:37;99514.13;;;12.70;100.00
5595;BME280;1003;48.002;7.788;2022-10-29T03:39:04;99506.97;;;12.37;100.00
5595;BME280;1003;48.002;7.788;2022-10-29T03:41:31;99503.03;;;12.16;100.00
5595;BME280;1003;48.002;7.788;2022-10-29T03:44:00;99511.59;;;12.01;100.00
5595;BME280;1003;48.002;7.788;2022-10-29T03:46:27;99514.16;;;11.96;100.00
5595;BME280;1003;48.002;7.788;2022-10-29T03:48:54;99519.25;;;11.92;100.00
5595;BME280;1003;48.002;7.788;2022-10-29T03:51:21;99524.31;;;11.87;100.00
5595;BME280;1003;48.002;7.788;2022-10-29T03:53:48;99530.13;;;11.95;100.00
5595;BME280;1003;48.002;7.788;2022-10-29T03:56:15;99535.09;;;12.01;100.00
5595;BME280;1003;48.002;7.788;2022-10-29T03:58:42;99542.56;;;12.09;100.00
5595;BME280;1003;48.002;7.788;2022-10-29T04:01:10;99549.28;;;12.12;100.00
5595;BME280;1003;48.002;7.788;2022-10-29T04:03:38;99553.47;;;12.13;100.00
5595;BME280;1003;48.002;7.788;2022-10-29T04:06:10;99559.34;;;12.13;100.00
5595;BME280;1003;48.002;7.788;2022-10-29T04:08:38;99566.09;;;12.08;100.00
5595;BME280;1003;48.002;7.788;2022-10-29T04:11:05;99570.25;;;12.14;100.00
5595;BME280;1003;48.002;7.788;2022-10-29T04:13:34;99574.47;;;12.10;100.00
5595;BME280;1003;48.002;7.788;2022-10-29T04:16:01;99579.59;;;12.05;100.00
5595;BME280;1003;48.002;7.788;2022-10-29T04:18:29;99586.38;;;11.97;100.00
5595;BME280;1003;48.002;7.788;2022-10-29T04:20:58;99587.25;;;11.92;100.00
5595;BME280;1003;48.002;7.788;2022-10-29T04:23:27;99588.09;;;11.89;100.00
5595;BME280;1003;48.002;7.788;2022-10-29T04:25:55;99590.63;;;11.89;100.00
5595;BME280;1003;48.002;7.788;2022-10-29T04:28:23;99598.25;;;11.85;100.00
5595;BME280;1003;48.002;7.788;2022-10-29T04:30:50;99594.16;;;11.68;100.00
5595;BME280;1003;48.002;7.788;2022-10-29T04:33:18;99601.00;;;11.49;100.00
5595;BME280;1003;48.002;7.788;2022-10-29T04:35:51;99606.94;;;11.38;100.00
5595;BME280;1003;48.002;7.788;2022-10-29T04:38:19;99607.81;;;11.32;100.00
5595;BME280;1003;48.002;7.788;2022-10-29T04:40:46;99617.88;;;11.32;100.00
5595;BME280;1003;48.002;7.788;2022-10-29T04:43:14;99622.06;;;11.35;100.00
5595;BME280;1003;48.002;7.788;2022-10-29T04:45:41;99616.19;;;11.34;100.00
5595;BME280;1003;48.002;7.788;2022-10-29T04:48:09;99614.56;;;11.24;100.00
5595;BME280;1003;48.002;7.788;2022-10-29T04:50:37;99641.44;;;11.25;100.00
5595;BME280;1003;48.002;7.788;2022-10-29T04:53:06;99649.00;;;11.20;100.00
5595;BME280;1003;48.002;7.788;2022-10-29T04:55:36;99649.84;;;11.13;100.00
5595;BME280;1003;48.002;7.788;2022-10-29T04:58:04;99655.75;;;11.08;100.00
5595;BME280;1003;48.002;7.788;2022-10-29T05:00:32;99654.06;;;11.08;100.00
5595;BME280;1003;48.002;7.788;2022-10-29T05:02:59;99729.56;;;11.00;100.00
5595;BME280;1003;48.002;7.788;2022-10-29T05:05:26;99731.25;;;11.00;100.00
5595;BME280;1003;48.002;7.788;2022-10-29T05:07:56;99727.03;;;11.05;100.00
5595;BME280;1003;48.002;7.788;2022-10-29T05:10:26;99721.16;;;11.06;100.00
5595;BME280;1003;48.002;7.788;2022-10-29T05:12:58;99730.34;;;11.21;100.00
5595;BME280;1003;48.002;7.788;2022-10-29T05:15:27;99744.59;;;11.25;100.00
5595;BME280;1003;48.002;7.788;2022-10-29T05:17:54;99743.72;;;11.27;100.00
5595;BME280;1003;48.002;7.788;2022-10-29T05:20:22;99772.25;;;11.36;100.00
5595;BME280;1003;48.002;7.788;2022-10-29T05:22:57;99791.44;;;11.50;100.00
5595;BME280;1003;48.002;7.788;2022-10-29T05:25:26;99815.78;;;11.50;100.00
5595;BME280;1003;48.002;7.788;2022-10-29T05:28:01;99835.94;;;11.41;100.00
5595;BME280;1003;48.002;7.788;2022-10-29T05:30:28;99845.22;;;11.26;100.00
5595;BME280;1003;48.002;7.788;2022-10-29T05:32:55;99860.38;;;11.14;100.00
5595;BME280;1003;48.002;7.788;2022-10-29T05:35:22;99875.44;;;11.07;100.00
5595;BME280;1003;48.002;7.788;2022-10-29T05:37:51;99888.03;;;11.05;100.00
5595;BME280;1003;48.002;7.788;2022-10-29T05:40:18;99897.25;;;11.04;100.00
5595;BME280;1003;48.002;7.788;2022-10-29T05:42:47;99903.13;;;10.96;100.00
5595;BME280;1003;48.002;7.788;2022-10-29T05:45:15;99917.38;;;10.85;100.00
5595;BME280;1003;48.002;7.788;2022-10-29T05:47:42;99925.75;;;10.79;100.00
5595;BME280;1003;48.002;7.788;2022-10-29T05:50:10;99929.94;;;10.78;100.00
5595;BME280;1003;48.002;7.788;2022-10-29T05:52:37;99927.41;;;10.75;100.00
5595;BME280;1003;48.002;7.788;2022-10-29T05:55:06;99932.44;;;10.74;100.00
5595;BME280;1003;48.002;7.788;2022-10-29T05:57:34;99940.81;;;10.65;100.00
5595;BME280;1003;48.002;7.788;2022-10-29T06:00:03;99940.00;;;10.60;100.00
5595;BME280;1003;48.002;7.788;2022-10-29T06:02:30;99949.19;;;10.57;100.00
5595;BME280;1003;48.002;7.788;2022-10-29T06:04:57;99953.34;;;10.55;100.00
5595;BME280;1003;48.002;7.788;2022-10-29T06:07:24;99944.16;;;10.55;100.00
5595;BME280;1003;48.002;7.788;2022-10-29T06:09:51;99961.72;;;10.49;100.00
5595;BME280;1003;48.002;7.788;2022-10-29T06:12:18;99955.84;;;10.48;100.00
5595;BME280;1003;48.002;7.788;2022-10-29T06:14:45;99940.78;;;10.45;100.00
5595;BME280;1003;48.002;7.788;2022-10-29T06:17:14;99934.09;;;10.50;100.00
5595;BME280;1003;48.002;7.788;2022-10-29T06:19:41;99952.53;;;10.51;100.00
5595;BME280;1003;48.002;7.788;2022-10-29T06:22:08;99962.59;;;10.51;100.00
5595;BME280;1003;48.002;7.788;2022-10-29T06:24:35;99971.78;;;10.50;100.00
5595;BME280;1003;48.002;7.788;2022-10-29T06:27:02;99980.16;;;10.52;100.00
5595;BME280;1003;48.002;7.788;2022-10-29T06:29:29;99989.38;;;10.52;100.00
5595;BME280;1003;48.002;7.788;2022-10-29T06:31:56;100012.88;;;10.57;100.00
5595;BME280;1003;48.002;7.788;2022-10-29T06:34:24;100023.78;;;10.64;100.00
5595;BME280;1003;48.002;7.788;2022-10-29T06:36:51;100036.34;;;10.65;100.00
5595;BME280;1003;48.002;7.788;2022-10-29T06:39:18;100044.75;;;10.69;100.00
5595;BME280;1003;48.002;7.788;2022-10-29T06:41:45;100058.19;;;10.80;100.00
5595;BME280;1003;48.002;7.788;2022-10-29T06:44:12;100069.09;;;10.87;100.00
5595;BME280;1003;48.002;7.788;2022-10-29T06:46:39;100090.09;;;10.93;100.00
5595;BME280;1003;48.002;7.788;2022-10-29T06:49:06;100109.38;;;10.96;100.00
5595;BME280;1003;48.002;7.788;2022-10-29T06:51:34;100117.78;;;10.99;100.00
5595;BME280;1003;48.002;7.788;2022-10-29T06:54:02;100139.63;;;11.10;100.00
5595;BME280;1003;48.002;7.788;2022-10-29T06:56:29;100153.13;;;11.30;100.00
5595;BME280;1003;48.002;7.788;2022-10-29T06:58:56;100170.75;;;11.44;100.00
5595;BME280;1003;48.002;7.788;2022-10-29T07:01:23;100187.56;;;11.54;100.00
5595;BME280;1003;48.002;7.788;2022-10-29T07:03:51;100204.34;;;11.61;100.00
5595;BME280;1003;48.002;7.788;2022-10-29T07:06:18;100227.03;;;11.64;100.00
5595;BME280;1003;48.002;7.788;2022-10-29T07:08:46;100255.56;;;11.72;100.00
5595;BME280;1003;48.002;7.788;2022-10-29T07:11:14;100273.22;;;11.77;100.00
5595;BME280;1003;48.002;7.788;2022-10-29T07:13:41;100287.50;;;11.81;100.00
5595;BME280;1003;48.002;7.788;2022-10-29T07:16:10;100314.44;;;11.87;100.00
5595;BME280;1003;48.002;7.788;2022-10-29T07:18:37;100322.00;;;11.94;100.00
5595;BME280;1003;48.002;7.788;2022-10-29T07:21:04;100359.81;;;12.05;100.00
5595;BME280;1003;48.002;7.788;2022-10-29T07:23:31;100370.78;;;12.21;100.00
5595;BME280;1003;48.002;7.788;2022-10-29T07:26:00;100398.56;;;12.34;100.00
5595;BME280;1003;48.002;7.788;2022-10-29T07:28:27;100419.63;;;12.49;100.00
5595;BME280;1003;48.002;7.788;2022-10-29T07:31:00;100442.31;;;12.56;100.00
5595;BME280;1003;48.002;7.788;2022-10-29T07:33:28;100466.72;;;12.70;100.00
5595;BME280;1003;48.002;7.788;2022-10-29T07:35:56;100501.25;;;12.87;100.00
5595;BME280;1003;48.002;7.788;2022-10-29T07:38:24;100534.09;;;13.03;100.00
5595;BME280;1003;48.002;7.788;2022-10-29T07:40:52;100559.34;;;13.20;100.00
5595;BME280;1003;48.002;7.788;2022-10-29T07:43:21;100593.91;;;13.36;100.00
5595;BME280;1003;48.002;7.788;2022-10-29T07:45:49;100623.41;;;13.51;100.00
5595;BME280;1003;48.002;7.788;2022-10-29T07:48:18;100645.31;;;13.58;100.00
5595;BME280;1003;48.002;7.788;2022-10-29T07:50:46;100683.22;;;13.67;100.00
5595;BME280;1003;48.002;7.788;2022-10-29T07:53:13;100702.59;;;13.77;100.00
5595;BME280;1003;48.002;7.788;2022-10-29T07:55:40;100726.22;;;13.84;100.00
5595;BME280;1003;48.002;7.788;2022-10-29T07:58:11;100744.75;;;13.92;100.00
5595;BME280;1003;48.002;7.788;2022-10-29T08:00:40;100754.03;;;14.04;100.00
5595;BME280;1003;48.002;7.788;2022-10-29T08:03:09;100761.63;;;14.13;100.00
5595;BME280;1003;48.002;7.788;2022-10-29T08:05:37;100745.59;;;14.25;100.00
5595;BME280;1003;48.002;7.788;2022-10-29T08:08:05;100711.88;;;14.35;100.00
5595;BME280;1003;48.002;7.788;2022-10-29T08:10:34;100651.19;;;14.53;100.00
5595;BME280;1003;48.002;7.788;2022-10-29T08:13:04;100565.03;;;14.73;100.00
5595;BME280;1003;48.002;7.788;2022-10-29T08:15:33;100448.47;;;14.96;100.00
5595;BME280;1003;48.002;7.788;2022-10-29T08:18:06;100421.31;;;15.12;100.00
5595;BME280;1003;48.002;7.788;2022-10-29T08:20:34;100427.09;;;15.29;100.00
5595;BME280;1003;48.002;7.788;2022-10-29T08:23:01;100415.16;;;15.39;100.00
5595;BME280;1003;48.002;7.788;2022-10-29T08:25:28;100390.59;;;15.44;100.00
5595;BME280;1003;48.002;7.788;2022-10-29T08:28:00;100382.00;;;15.59;100.00
5595;BME280;1003;48.002;7.788;2022-10-29T08:30:28;100369.38;;;15.56;100.00
5595;BME280;1003;48.002;7.788;2022-10-29T08:32:55;100354.00;;;15.72;100.00
5595;BME280;1003;48.002;7.788;2022-10-29T08:35:23;100340.25;;;15.90;100.00
5595;BME280;1003;48.002;7.788;2022-10-29T08:37:50;100318.97;;;16.00;100.00
5595;BME280;1003;48.002;7.788;2022-10-29T08:40:30;100308.72;;;16.10;100.00
5595;BME280;1003;48.002;7.788;2022-10-29T08:43:29;100281.38;;;16.27;100.00
5595;BME280;1003;48.002;7.788;2022-10-29T08:46:00;100270.16;;;16.40;100.00
5595;BME280;1003;48.002;7.788;2022-10-29T08:48:36;100251.28;;;16.57;100.00
5595;BME280;1003;48.002;7.788;2022-10-29T08:51:13;100223.16;;;16.67;100.00
5595;BME280;1003;48.002;7.788;2022-10-29T08:53:46;100196.00;;;16.72;100.00
5595;BME280;1003;48.002;7.788;2022-10-29T08:56:21;100152.59;;;16.86;100.00
5595;BME280;1003;48.002;7.788;2022-10-29T08:58:57;100121.22;;;16.89;100.00
5595;BME280;1003;48.002;7.788;2022-10-29T09:01:26;100096.31;;;17.04;100.00
5595;BME280;1003;48.002;7.788;2022-10-29T09:03:54;100050.28;;;17.18;100.00
5595;BME280;1003;48.002;7.788;2022-10-29T09:06:35;100012.63;;;17.36;100.00
5595;BME280;1003;48.002;7.788;2022-10-29T09:09:26;99967.53;;;17.44;100.00
5595;BME280;1003;48.002;7.788;2022-10-29T09:12:20;99908.63;;;17.61;100.00
5595;BME280;1003;48.002;7.788;2022-10-29T09:18:31;99776.28;;;17.65;100.00
5595;BME280;1003;48.002;7.788;2022-10-29T09:21:12;99712.31;;;17.79;100.00
5595;BME280;1003;48.002;7.788;2022-10-29T09:23:57;99603.66;;;17.84;100.00
5595;BME280;1003;48.002;7.788;2022-10-29T09:26:30;99514.06;;;18.01;100.00
5595;BME280;1003;48.002;7.788;2022-10-29T09:29:17;99410.88;;;18.17;100.00
5595;BME280;1003;48.002;7.788;2022-10-29T09:31:54;99320.53;;;18.29;100.00
5595;BME280;1003;48.002;7.788;2022-10-29T09:34:29;99253.00;;;18.42;100.00
5595;BME280;1003;48.002;7.788;2022-10-29T09:36:57;99176.25;;;18.51;100.00
5595;BME280;1003;48.002;7.788;2022-10-29T09:39:32;99104.72;;;18.57;100.00
5595;BME280;1003;48.002;7.788;2022-10-29T09:42:04;99032.75;;;18.54;100.00
5595;BME280;1003;48.002;7.788;2022-10-29T09:44:42;98975.09;;;18.72;100.00
5595;BME280;1003;48.002;7.788;2022-10-29T09:47:27;98943.06;;;18.85;100.00
5595;BME280;1003;48.002;7.788;2022-10-29T09:50:13;98914.63;;;18.94;100.00
5595;BME280;1003;48.002;7.788;2022-10-29T09:52:44;98899.56;;;19.07;100.00
5595;BME280;1003;48.002;7.788;2022-10-29T09:55:21;98904.56;;;19.26;100.00
5595;BME280;1003;48.002;7.788;2022-10-29T09:57:49;98906.28;;;19.43;100.00
5595;BME280;1003;48.002;7.788;2022-10-29T10:00:21;98923.41;;;19.56;100.00
5595;BME280;1003;48.002;7.788;2022-10-29T10:02:56;98932.63;;;19.76;100.00
5595;BME280;1003;48.002;7.788;2022-10-29T10:05:27;98936.53;;;19.99;100.00
5595;BME280;1003;48.002;7.788;2022-10-29T10:08:18;98935.38;;;20.05;100.00
5595;BME280;1003;48.002;7.788;2022-10-29T10:10:52;98936.53;;;20.15;100.00
5595;BME280;1003;48.002;7.788;2022-10-29T10:13:23;98934.47;;;20.22;100.00
5595;BME280;1003;48.002;7.788;2022-10-29T10:15:53;98939.00;;;20.32;100.00
5595;BME280;1003;48.002;7.788;2022-10-29T10:18:23;98937.69;;;20.41;100.00
5595;BME280;1003;48.002;7.788;2022-10-29T10:21:03;98960.75;;;20.55;100.00
5595;BME280;1003;48.002;7.788;2022-10-29T10:23:48;98961.63;;;20.56;100.00
5595;BME280;1003;48.002;7.788;2022-10-29T10:26:34;98964.13;;;20.71;100.00
5595;BME280;1003;48.002;7.788;2022-10-29T10:29:10;98967.09;;;20.80;100.00
5595;BME280;1003;48.002;7.788;2022-10-29T10:31:37;98968.63;;;20.82;100.00
5595;BME280;1003;48.002;7.788;2022-10-29T10:34:14;98963.25;;;20.57;100.00
5595;BME280;1003;48.002;7.788;2022-10-29T10:36:46;98967.44;;;20.74;100.00
5595;BME280;1003;48.002;7.788;2022-10-29T10:39:27;98975.47;;;20.82;100.00
5595;BME280;1003;48.002;7.788;2022-10-29T10:41:59;98968.78;;;20.95;100.00
5595;BME280;1003;48.002;7.788;2022-10-29T10:44:28;98966.44;;;21.06;100.00
5595;BME280;1003;48.002;7.788;2022-10-29T10:46:59;98968.06;;;21.23;100.00
5595;BME280;1003;48.002;7.788;2022-10-29T10:49:34;98962.47;;;21.16;100.00
5595;BME280;1003;48.002;7.788;2022-10-29T10:52:05;98957.72;;;21.10;100.00
5595;BME280;1003;48.002;7.788;2022-10-29T10:54:36;98950.88;;;21.11;100.00
5595;BME280;1003;48.002;7.788;2022-10-29T10:57:20;98949.94;;;21.12;100.00
5595;BME280;1003;48.002;7.788;2022-10-29T10:59:59;98956.13;;;21.08;100.00
5595;BME280;1003;48.002;7.788;2022-10-29T11:02:41;98951.22;;;21.35;100.00
5595;BME280;1003;48.002;7.788;2022-10-29T11:05:17;98946.22;;;21.47;100.00
5595;BME280;1003;48.002;7.788;2022-10-29T11:07:55;98946.31;;;21.74;100.00
5595;BME280;1003;48.002;7.788;2022-10-29T11:10:33;98924.19;;;21.88;100.00
5595;BME280;1003;48.002;7.788;2022-10-29T11:13:11;98915.75;;;22.00;100.00
5595;BME280;1003;48.002;7.788;2022-10-29T11:15:47;98906.63;;;22.10;100.00
5595;BME280;1003;48.002;7.788;2022-10-29T11:18:21;98899.38;;;22.17;100.00
5595;BME280;1003;48.002;7.788;2022-10-29T11:21:05;98882.69;;;22.38;100.00
5595;BME280;1003;48.002;7.788;2022-10-29T11:23:47;98863.88;;;22.52;100.00
5595;BME280;1003;48.002;7.788;2022-10-29T11:26:27;98850.72;;;22.44;100.00
5595;BME280;1003;48.002;7.788;2022-10-29T11:29:04;98853.44;;;22.55;100.00
5595;BME280;1003;48.002;7.788;2022-10-29T11:31:47;98833.09;;;22.66;100.00
5595;BME280;1003;48.002;7.788;2022-10-29T11:34:23;98815.16;;;22.79;100.00
5595;BME280;1003;48.002;7.788;2022-10-29T11:37:01;98788.19;;;22.86;100.00
5595;BME280;1003;48.002;7.788;2022-10-29T11:39:37;98751.00;;;23.06;100.00
5595;BME280;1003;48.002;7.788;2022-10-29T11:42:09;98726.38;;;23.16;100.00
5595;BME280;1003;48.002;7.788;2022-10-29T11:44:40;98455.44;;;23.28;100.00
5595;BME280;1003;48.002;7.788;2022-10-29T11:47:30;98513.66;;;23.50;100.00
5595;BME280;1003;48.002;7.788;2022-10-29T11:50:19;98538.22;;;23.65;100.00
5595;BME280;1003;48.002;7.788;2022-10-29T11:53:00;98546.03;;;23.64;100.00
5595;BME280;1003;48.002;7.788;2022-10-29T11:55:40;98533.69;;;23.69;100.00
5595;BME280;1003;48.002;7.788;2022-10-29T11:58:20;98532.56;;;23.60;100.00
5595;BME280;1003;48.002;7.788;2022-10-29T12:01:01;98527.09;;;23.53;100.00
5595;BME280;1003;48.002;7.788;2022-10-29T12:04:07;98535.25;;;23.58;100.00
5595;BME280;1003;48.002;7.788;2022-10-29T12:06:48;98519.56;;;23.63;100.00
5595;BME280;1003;48.002;7.788;2022-10-29T12:12:51;98522.16;;;23.74;100.00
5595;BME280;1003;48.002;7.788;2022-10-29T12:15:25;98518.38;;;23.67;100.00
5595;BME280;1003;48.002;7.788;2022-10-29T12:18:10;98498.06;;;23.53;100.00
5595;BME280;1003;48.002;7.788;2022-10-29T12:20:50;98506.50;;;23.66;100.00
5595;BME280;1003;48.002;7.788;2022-10-29T12:23:31;98500.22;;;23.70;100.00
5595;BME280;1003;48.002;7.788;2022-10-29T12:26:09;98495.06;;;23.70;100.00
5595;BME280;1003;48.002;7.788;2022-10-29T12:28:51;98479.22;;;23.76;100.00
5595;BME280;1003;48.002;7.788;2022-10-29T12:31:28;98484.34;;;23.88;100.00
5595;BME280;1003;48.002;7.788;2022-10-29T12:34:04;98481.91;;;23.86;100.00
5595;BME280;1003;48.002;7.788;2022-10-29T12:36:39;98480.75;;;23.79;100.00
5595;BME280;1003;48.002;7.788;2022-10-29T12:39:17;98475.13;;;23.85;100.00
5595;BME280;1003;48.002;7.788;2022-10-29T12:41:52;98475.03;;;23.87;100.00
5595;BME280;1003;48.002;7.788;2022-10-29T12:44:30;98477.00;;;23.94;100.00
5595;BME280;1003;48.002;7.788;2022-10-29T12:47:09;98486.56;;;24.03;100.00
5595;BME280;1003;48.002;7.788;2022-10-29T12:49:53;98467.91;;;24.01;100.00
5595;BME280;1003;48.002;7.788;2022-10-29T12:52:34;98464.75;;;24.09;100.00
5595;BME280;1003;48.002;7.788;2022-10-29T12:55:07;98464.38;;;24.14;100.00
5595;BME280;1003;48.002;7.788;2022-10-29T12:57:36;98462.06;;;24.22;100.00
5595;BME280;1003;48.002;7.788;2022-10-29T13:00:45;98458.88;;;24.29;100.00
5595;BME280;1003;48.002;7.788;2022-10-29T13:03:59;98461.56;;;24.28;100.00
5595;BME280;1003;48.002;7.788;2022-10-29T13:06:56;98464.13;;;24.28;100.00
5595;BME280;1003;48.002;7.788;2022-10-29T13:09:25;98458.19;;;24.39;100.00
5595;BME280;1003;48.002;7.788;2022-10-29T13:11:55;98460.84;;;24.48;100.00
5595;BME280;1003;48.002;7.788;2022-10-29T13:14:37;98467.34;;;24.64;100.00
5595;BME280;1003;48.002;7.788;2022-10-29T13:17:25;98457.81;;;24.86;100.00
5595;BME280;1003;48.002;7.788;2022-10-29T13:19:56;98450.47;;;24.82;100.00
5595;BME280;1003;48.002;7.788;2022-10-29T13:23:28;98438.44;;;24.82;100.00
5595;BME280;1003;48.002;7.788;2022-10-29T13:25:57;98444.38;;;24.83;100.00
5595;BME280;1003;48.002;7.788;2022-10-29T13:28:49;98444.56;;;24.91;100.00
5595;BME280;1003;48.002;7.788;2022-10-29T13:31:50;98444.31;;;24.94;100.00
5595;BME280;1003;48.002;7.788;2022-10-29T13:34:49;98445.28;;;24.93;100.00
5595;BME280;1003;48.002;7.788;2022-10-29T13:38:08;98445.50;;;24.90;100.00
5595;BME280;1003;48.002;7.788;2022-10-29T13:41:10;98443.31;;;24.85;100.00
5595;BME280;1003;48.002;7.788;2022-10-29T13:43:41;98440.91;;;24.73;100.00
5595;BME280;1003;48.002;7.788;2022-10-29T13:46:45;98434.22;;;24.81;100.00
5595;BME280;1003;48.002;7.788;2022-10-29T13:49:19;98432.34;;;24.83;100.00